x

Tillamook, Or - 85 Nm Wnw Of Tillamook, Or (46089) Wave Buoy

8:50pm - Tue 15th Apr 2014 All times are PDT. -7 hours from GMT.

  • Sig Wave height 7.5ft
  • Swell Direction
  • Peak Period 10s
  • Average Period 7s
  • Wind
    13mph, 18mph gusts
  • Sea Temp 51°f
  • Air Temp 50°f
  • Sea Pressure 1020.9mb
  • Tillamook, Or - 85 Nm Wnw Of Tillamook, Or
  • Tillamook, Or - 85 Nm Wnw Of Tillamook, Or

More Historic Weather Station data

Upgrade to MSW Pro to gain access to the past 30 days of data for over 8000 Wavebouys and Weather Stations around the globe.

Join Pro

Comparision Forecast

View Surf forecast
   
Tue 04/15 8:50pm 7.5ft 10s 7s 13 18 mph 1020.9mb 51f 50f
7:50pm 7.5ft 9s 7s 13 18 mph 1021.3mb 52f 50f
6:50pm 7ft 11s 7s 13 18 mph 1021.6mb 52f 51f
5:50pm 8ft 11s 7s 13 18 mph 1022.1mb 52f 50f
4:50pm 8ft 11s 7s 16 20 mph 1022.6mb 52f 50f
3:50pm 8ft 11s 7s 13 18 mph 1022.7mb 52f 51f
2:50pm 8ft 11s 7s 16 20 mph 1023mb 52f 50f
1:50pm 9ft 11s 8s 13 18 mph 1023.6mb 52f 50f
12:50pm 8ft 11s 7s 13 16 mph 1024.2mb 52f 51f
11:50am 8.5ft 11s 8s 13 16 mph 1024.6mb 51f 51f
10:50am 8ft 11s 8s 11 13 mph 1024.8mb 51f 51f
9:50am 9ft 11s 8s 11 18 mph 1024.7mb 51f 50f
8:50am 9ft 11s 8s 9 16 mph 1024.5mb 51f 50f
7:50am 10ft 12s 8s 9 16 mph 1024.5mb 51f 50f
6:50am 9ft 13s 8s 9 13 mph 1024.7mb 51f 49f
5:50am 10ft 12s 8s 9 13 mph 1024.7mb 51f 49f
4:50am 9ft 12s 8s 11 16 mph 1025mb 51f 49f
3:50am 7.5ft 13s 7s 11 16 mph 1025.1mb 51f 49f
2:50am 6ft 12s 7s 9 13 mph 1025mb 52f 50f
1:50am 6ft 12s 7s 11 13 mph 1025.4mb 52f 50f
12:50am 6ft 13s 7s 9 11 mph 1025.3mb 52f 50f
Mon 04/14 11:50pm 6ft 13s 6s 9 13 mph 1025.6mb 52f 50f
10:50pm 6ft 13s 6s 11 13 mph 1025.7mb 52f 50f
9:50pm 6ft 12s 6s 11 16 mph 1025.7mb 52f 50f
8:50pm 6.5ft 13s 6s 13 18 mph 1025.1mb 51f 50f
7:50pm 6ft 7s 6s 13 18 mph 1025.1mb 51f 50f
6:50pm 6.5ft 14s 6s 13 18 mph 1025.2mb 51f 50f
5:50pm 6.5ft 14s 6s 13 16 mph 1025.3mb 51f 50f
4:50pm 7ft 14s 6s 13 18 mph 1025mb 51f 50f
3:50pm 7ft 13s 6s 16 20 mph 1025mb 51f 50f
2:50pm 7ft 6s 6s 13 18 mph 1025mb 51f 50f
1:50pm 7ft 6s 6s 16 22 mph 1024.5mb 51f 50f
12:50pm 7ft 6s 5s 16 22 mph 1024.2mb 51f 50f
11:50am 7ft 14s 6s 16 22 mph 1023.7mb 51f 50f
10:50am 6.5ft 13s 6s 16 20 mph 1023mb 51f 50f
9:50am 6ft 13s 5s 16 22 mph 1022mb 51f 50f
8:50am 7ft 13s 6s 16 22 mph 1021.6mb 51f 50f
7:50am 6ft 14s 5s 16 20 mph 1021.1mb 50f 50f
6:50am 6ft 14s 6s 16 22 mph 1020.8mb 51f 50f
5:50am 5.5ft 15s 6s 18 22 mph 1020.2mb 51f 50f
4:50am 5ft 15s 8s 16 20 mph 1020.1mb 51f 51f
3:50am 5.5ft 15s 9s 9 13 mph 1019.8mb 50f 52f
2:50am 5ft 15s 8s 9 11 mph 1019.8mb 51f 52f
1:50am 5.5ft 15s 9s 9 11 mph 1020mb 51f 52f
12:50am 5ft 15s 8s 9
mph
1020.3mb 51f 52f
Sun 04/13 11:50pm 5ft 15s 8s 9 11 mph 1020.8mb 51f 53f
10:50pm 5ft 14s 8s 9 11 mph 1021.3mb 51f 53f
9:50pm 6ft 15s 9s 9 11 mph 1021.8mb 52f 52f
8:50pm 6ft 15s 9s 7 11 mph 1021.8mb 52f 53f
7:50pm 5.5ft 15s 9s 9
mph
1021.9mb 52f 52f
6:50pm 5.5ft 15s 8s 7 11 mph 1022.3mb 52f 53f
5:50pm 5.5ft 15s 8s 7 9 mph 1022.7mb 52f 53f
4:50pm 6ft 15s 8s 4 7 mph 1023.1mb 52f 53f
3:50pm 6ft 15s 8s 7
mph
1023.8mb 52f 53f
2:50pm 6ft 15s 8s 7 9 mph 1024.2mb 51f 53f
1:50pm 5.5ft 15s 7s 9 11 mph 1024.2mb 51f 53f
12:50pm 5ft 15s 7s 9 11 mph 1024.4mb 51f 52f
11:50am 6ft 15s 7s 7 9 mph 1024.5mb 51f 52f
10:50am  -   -   -  9 11 mph 1024.4mb 51f 52f
9:50am 6ft 16s 7s 9 11 mph 1024.1mb 51f 52f
8:50am 6ft 16s 7s 9 11 mph 1023.7mb 51f 52f
7:50am 6.5ft 16s 7s 9 13 mph 1023.4mb 51f 51f
6:50am 6ft 16s 7s 11 16 mph 1023.1mb 51f 50f
5:50am 7ft 9s 7s 11 16 mph 1022.9mb 51f 50f
4:50am 8ft 11s 8s 9 13 mph 1023.2mb 51f 50f
3:50am 7ft 10s 7s 9 13 mph 1023.1mb 50f 49f
2:50am 7.5ft 11s 7s 9 13 mph 1023.1mb 50f 49f
1:50am 7ft 10s 7s 11 16 mph 1023.1mb 50f 49f
12:50am 6.5ft 10s 6s 11 16 mph 1022.9mb 50f 49f
Sat 04/12 11:50pm 7ft 11s 6s 13 18 mph 1022.7mb 50f 49f
10:50pm 6.5ft 10s 6s 13 20 mph 1022.1mb 50f 49f
9:50pm 6ft 11s 6s 13 20 mph 1021.8mb 50f 48f
8:50pm 7ft 11s 7s 16 20 mph 1021.3mb 50f 48f
7:50pm 7ft 11s 6s 13 20 mph 1020.9mb 50f 48f
6:50pm  -   -   -  13 18 mph 1020.9mb 50f 48f
5:50pm 7ft 11s 6s 13 18 mph 1021.4mb 50f 48f
4:50pm 7ft 11s 6s 13 18 mph 1021.6mb 50f 48f
3:50pm 7.5ft 11s 7s 11 18 mph 1021.8mb 50f 48f
2:50pm 7.5ft 10s 7s 11 16 mph 1021.8mb 50f 47f
1:50pm 7ft 10s 6s 11 16 mph 1021.8mb 50f 47f
12:50pm 7.5ft 10s 6s 11 18 mph 1022mb 50f 47f
11:50am 7.5ft 10s 7s 13 18 mph 1021.8mb 50f 47f
10:50am 6.5ft 10s 6s 13 20 mph 1021.5mb 50f 48f
9:50am 7ft 10s 6s 11 16 mph 1021.4mb 50f 47f
8:50am 7ft 10s 6s 13 18 mph 1021.6mb 50f 46f
7:50am 7ft 10s 6s 13 20 mph 1021.2mb 50f 47f
6:50am 7ft 10s 6s 13 18 mph 1020.8mb 50f 47f
5:50am 6.5ft 10s 6s 11 20 mph 1020.7mb 50f 48f